Time;durP1;ratioP1;P1;durP2;ratioP2;P2;SDS_P1;SDS_P2;PMS_P1;PMS_P2;Temp;Humidity;BMP_temperature;BMP_pressure;BME280_temperature;BME280_humidity;BME280_pressure;Samples;Min_cycle;Max_cycle;Signal;HPM_P1;HPM_P2
2022/12/29 00:00:06;;;;;;;6.45;5.95;;;10.20;99.90;;;;;;4999836;28;89580;-32
2022/12/29 00:02:32;;;;;;;6.67;6.17;;;10.10;99.90;;;;;;5000439;28;88280;-32
2022/12/29 00:04:57;;;;;;;7.18;6.53;;;10.10;99.90;;;;;;5000256;28;90049;-32
2022/12/29 00:07:23;;;;;;;7.82;7.05;;;10.10;99.90;;;;;;5000526;28;88815;-33
2022/12/29 00:09:48;;;;;;;6.65;6.10;;;10.20;99.90;;;;;;5001223;28;89437;-32
2022/12/29 00:12:14;;;;;;;8.00;7.10;;;10.20;99.90;;;;;;4999943;28;89075;-33
2022/12/29 00:17:24;;;;;;;8.57;6.35;;;10.20;99.90;;;;;;5000927;28;89787;-33
2022/12/29 00:36:32;;;;;;;7.70;6.90;;;10.20;99.90;;;;;;4999876;28;90980;-33
2022/12/29 00:44:37;;;;;;;6.57;6.07;;;10.30;99.90;;;;;;4982275;28;89205;-32
2022/12/29 00:47:04;;;;;;;7.00;6.30;;;10.20;99.90;;;;;;4999340;28;89097;-32
2022/12/29 00:49:30;;;;;;;7.90;6.13;;;10.30;99.90;;;;;;4999633;28;89321;-33
2022/12/29 00:52:01;;;;;;;6.75;6.10;;;10.30;99.90;;;;;;4998440;28;89544;-32
2022/12/29 00:54:29;;;;;;;7.35;6.65;;;10.30;99.90;;;;;;5000168;28;89657;-33
2022/12/29 00:56:54;;;;;;;12.38;5.65;;;10.30;99.90;;;;;;4999470;28;90490;-33
2022/12/29 00:59:20;;;;;;;6.88;6.28;;;10.30;99.90;;;;;;5000326;28;89663;-34
2022/12/29 01:01:46;;;;;;;6.35;5.75;;;10.40;99.90;;;;;;4998883;28;89492;-34
2022/12/29 01:04:12;;;;;;;6.07;5.57;;;10.40;99.90;;;;;;4999978;28;90544;-35
2022/12/29 01:06:39;;;;;;;6.40;5.80;;;10.40;99.90;;;;;;4998062;28;90278;-33
2022/12/29 01:11:50;;;;;;;6.10;5.55;;;10.40;99.90;;;;;;4999602;28;90110;-34
2022/12/29 01:14:16;;;;;;;5.70;5.20;;;10.40;99.90;;;;;;5000533;28;88740;-32
2022/12/29 01:16:42;;;;;;;7.22;5.85;;;10.40;99.90;;;;;;4998879;28;90166;-34
2022/12/29 01:19:07;;;;;;;5.93;5.32;;;10.40;99.90;;;;;;5000002;28;89629;-34
2022/12/29 01:21:33;;;;;;;5.47;4.97;;;10.40;99.90;;;;;;4999692;28;89006;-32
2022/12/29 01:23:59;;;;;;;5.15;4.75;;;10.50;99.90;;;;;;4999931;28;87661;-33
2022/12/29 01:26:24;;;;;;;4.85;4.45;;;10.50;99.90;;;;;;4998570;28;90155;-33
2022/12/29 01:28:50;;;;;;;4.80;4.40;;;10.60;99.90;;;;;;4998605;28;90681;-33
2022/12/29 01:31:16;;;;;;;5.55;4.95;;;10.60;99.90;;;;;;4999326;28;90599;-32
2022/12/29 01:33:42;;;;;;;5.57;5.07;;;10.60;99.90;;;;;;4998759;28;89811;-33
2022/12/29 01:36:12;;;;;;;6.03;5.03;;;10.70;99.90;;;;;;4999250;28;90361;-32
2022/12/29 01:38:38;;;;;;;4.70;4.30;;;10.70;99.90;;;;;;4999323;28;89283;-34
2022/12/29 01:41:05;;;;;;;8.25;4.65;;;10.80;99.90;;;;;;4999358;28;89162;-32
2022/12/29 01:43:49;;;;;;;4.63;4.18;;;10.80;99.90;;;;;;4999359;28;88663;-32
2022/12/29 01:46:29;;;;;;;3.97;3.67;;;10.70;99.90;;;;;;4999792;28;90104;-34
2022/12/29 01:49:11;;;;;;;6.03;5.43;;;10.80;99.90;;;;;;4999383;28;89860;-33
2022/12/29 01:51:54;;;;;;;5.47;4.97;;;10.80;99.90;;;;;;4998238;28;89903;-32
2022/12/29 01:54:23;;;;;;;5.78;5.28;;;10.80;99.90;;;;;;4999503;28;90670;-32
2022/12/29 01:56:53;;;;;;;5.22;4.72;;;10.80;99.90;;;;;;4999013;28;91758;-32
2022/12/29 01:59:27;;;;;;;4.00;3.65;;;10.80;99.90;;;;;;4999084;28;91075;-32
2022/12/29 02:01:52;;;;;;;4.43;4.03;;;10.80;99.90;;;;;;4998872;28;90346;-32
2022/12/29 02:04:18;;;;;;;4.32;3.92;;;10.90;99.90;;;;;;4999671;28;88693;-33
2022/12/29 02:06:57;;;;;;;5.75;4.47;;;10.80;99.90;;;;;;4998414;28;90178;-32
2022/12/29 02:09:23;;;;;;;;;;;10.90;99.90;;;;;;4999457;28;89784;-35
2022/12/29 02:11:49;;;;;;;5.13;4.25;;;10.90;99.90;;;;;;5000605;28;89304;-31
2022/12/29 02:14:15;;;;;;;5.63;4.28;;;10.90;99.90;;;;;;4999459;28;89642;-33
2022/12/29 02:17:18;;;;;;;5.03;4.53;;;10.90;99.90;;;;;;4998266;28;90209;-33
2022/12/29 02:20:11;;;;;;;3.05;2.70;;;11.00;99.90;;;;;;4985466;28;90488;-33
2022/12/29 02:23:07;;;;;;;3.67;3.38;;;11.00;99.90;;;;;;4998040;28;90022;-34
2022/12/29 02:25:58;;;;;;;4.10;3.72;;;11.00;99.90;;;;;;4999323;28;89902;-31
2022/12/29 02:28:47;;;;;;;4.07;3.75;;;11.10;99.90;;;;;;4997849;28;90345;-37
2022/12/29 02:31:45;;;;;;;7.93;4.00;;;11.00;99.90;;;;;;4998110;28;89833;-31
2022/12/29 02:34:24;;;;;;;5.32;3.92;;;11.10;99.90;;;;;;4997932;28;88516;-32
2022/12/29 02:37:11;;;;;;;3.85;3.45;;;11.00;99.90;;;;;;4998153;28;88018;-33
2022/12/29 02:40:05;;;;;;;3.50;3.20;;;11.10;99.90;;;;;;4998266;28;89795;-33
2022/12/29 02:43:04;;;;;;;3.63;3.33;;;11.10;99.90;;;;;;4999110;28;89526;-33
2022/12/29 02:45:33;;;;;;;4.43;3.95;;;11.00;99.90;;;;;;4998687;28;90365;-35
2022/12/29 02:48:16;;;;;;;4.95;4.40;;;10.90;99.90;;;;;;4998328;28;90438;-34
2022/12/29 02:51:04;;;;;;;4.55;3.50;;;10.80;99.90;;;;;;4997883;28;90367;-31
2022/12/29 02:56:16;;;;;;;4.10;3.00;;;10.70;99.90;;;;;;4998732;28;89861;-31
2022/12/29 02:58:42;;;;;;;3.83;3.50;;;10.70;99.90;;;;;;4998783;28;89611;-32
2022/12/29 03:01:38;;;;;;;3.90;3.60;;;10.70;99.90;;;;;;4997878;28;90748;-32
2022/12/29 03:04:36;;;;;;;3.50;3.20;;;10.60;99.90;;;;;;4987473;28;89787;-35
2022/12/29 03:07:23;;;;;;;4.60;3.00;;;10.50;99.90;;;;;;5000896;28;89344;-32
2022/12/29 03:10:15;;;;;;;4.00;3.35;;;10.60;99.90;;;;;;5001838;28;89550;-35
2022/12/29 03:16:34;;;;;;;3.50;3.15;;;10.50;99.90;;;;;;5000542;28;90684;-33
2022/12/29 03:19:12;;;;;;;3.25;3.03;;;10.60;99.90;;;;;;4983361;28;90319;-32
2022/12/29 03:24:29;;;;;;;6.30;2.38;;;10.50;99.90;;;;;;5001840;28;90407;-33
2022/12/29 03:26:58;;;;;;;3.78;2.63;;;10.50;99.90;;;;;;4999506;28;89807;-34
2022/12/29 03:29:26;;;;;;;2.60;2.40;;;10.40;99.90;;;;;;5001987;28;90722;-35
2022/12/29 03:31:53;;;;;;;;;;;10.40;99.90;;;;;;5001952;28;88281;-33
2022/12/29 03:34:21;;;;;;;3.00;2.70;;;10.40;99.90;;;;;;5002284;28;90141;-35
2022/12/29 03:36:55;;;;;;;3.38;3.17;;;10.40;99.90;;;;;;5000937;28;89761;-35
2022/12/29 03:39:23;;;;;;;5.85;2.58;;;10.30;99.90;;;;;;5001891;28;89598;-32
2022/12/29 03:41:54;;;;;;;3.25;3.00;;;10.40;99.90;;;;;;5000628;28;88494;-32
2022/12/29 03:44:20;;;;;;;3.50;3.20;;;10.30;99.90;;;;;;5001355;28;89862;-32
2022/12/29 03:46:46;;;;;;;4.05;2.50;;;10.30;99.90;;;;;;5000452;28;90276;-34
2022/12/29 03:49:12;;;;;;;3.58;2.97;;;10.30;99.90;;;;;;5001580;28;89616;-33
2022/12/29 03:51:37;;;;;;;3.72;2.75;;;10.30;99.90;;;;;;5001069;28;89076;-33
2022/12/29 03:54:03;;;;;;;2.50;2.30;;;10.40;99.90;;;;;;5001163;28;89530;-34
2022/12/29 03:56:28;;;;;;;2.72;2.25;;;10.40;99.90;;;;;;5000151;28;87980;-34
2022/12/29 03:58:54;;;;;;;2.45;2.25;;;10.50;99.90;;;;;;5000997;28;89762;-35
2022/12/29 04:01:19;;;;;;;2.60;2.38;;;10.40;99.90;;;;;;5001075;28;89005;-33
2022/12/29 04:03:45;;;;;;;2.28;1.98;;;10.40;99.90;;;;;;5000790;28;90434;-34
2022/12/29 04:06:11;;;;;;;2.78;2.38;;;10.50;99.90;;;;;;5000694;28;90192;-33
2022/12/29 04:08:36;;;;;;;2.33;2.05;;;10.50;99.90;;;;;;5000210;28;90017;-31
2022/12/29 04:11:02;;;;;;;2.30;1.98;;;10.50;99.90;;;;;;5000737;28;89143;-32
2022/12/29 04:13:27;;;;;;;3.35;2.22;;;10.60;99.90;;;;;;4999965;28;90405;-31
2022/12/29 04:15:53;;;;;;;2.33;2.10;;;10.60;99.90;;;;;;5001358;28;89955;-36
2022/12/29 04:18:19;;;;;;;4.93;2.38;;;10.60;99.90;;;;;;5000777;28;89459;-35
2022/12/29 04:21:00;;;;;;;6.03;2.25;;;10.70;99.90;;;;;;5000298;28;89667;-34
2022/12/29 04:23:29;;;;;;;2.78;2.25;;;10.70;99.90;;;;;;5000653;28;90334;-34
2022/12/29 04:25:55;;;;;;;6.38;2.83;;;10.60;99.90;;;;;;5000002;28;88956;-32
2022/12/29 04:28:21;;;;;;;2.22;2.03;;;10.50;99.90;;;;;;5000602;28;88962;-33
2022/12/29 04:30:47;;;;;;;6.60;2.25;;;10.60;99.90;;;;;;5000117;28;89817;-32
2022/12/29 04:33:13;;;;;;;6.18;1.75;;;10.60;99.90;;;;;;4999586;28;90042;-33
2022/12/29 04:35:39;;;;;;;2.97;1.48;;;10.50;99.90;;;;;;5000000;28;88812;-33
2022/12/29 04:38:04;;;;;;;4.43;1.80;;;10.60;99.90;;;;;;5000018;28;89275;-32
2022/12/29 04:40:30;;;;;;;4.78;2.47;;;10.60;99.90;;;;;;5001259;28;90068;-33
2022/12/29 04:42:56;;;;;;;4.90;1.63;;;10.60;99.90;;;;;;5000368;28;90162;-33
2022/12/29 04:45:23;;;;;;;2.00;1.90;;;10.70;99.90;;;;;;4999580;28;88529;-35
2022/12/29 04:47:48;;;;;;;2.28;1.63;;;10.70;99.90;;;;;;5000752;28;90632;-33
2022/12/29 04:50:14;;;;;;;5.65;2.15;;;10.80;99.90;;;;;;5000260;28;89688;-33
2022/12/29 04:52:40;;;;;;;2.08;1.80;;;10.80;99.90;;;;;;5000548;28;89284;-32
2022/12/29 04:55:06;;;;;;;2.13;1.42;;;10.70;99.90;;;;;;4999694;28;89939;-34
2022/12/29 04:57:32;;;;;;;5.47;1.55;;;10.70;99.90;;;;;;4998789;28;89503;-33
2022/12/29 04:59:58;;;;;;;4.22;1.73;;;10.70;99.90;;;;;;5000669;28;90116;-33
2022/12/29 05:02:23;;;;;;;2.25;1.23;;;10.70;99.90;;;;;;4999906;28;90755;-37
2022/12/29 05:04:49;;;;;;;5.65;1.77;;;10.70;99.90;;;;;;5000444;28;89813;-32
2022/12/29 05:07:15;;;;;;;4.65;1.60;;;10.70;99.90;;;;;;4999763;28;89159;-34
2022/12/29 05:09:40;;;;;;;3.92;1.50;;;10.60;99.90;;;;;;4999307;28;88836;-34
2022/12/29 05:12:06;;;;;;;3.03;1.42;;;10.60;99.90;;;;;;5000266;28;90162;-34
2022/12/29 05:14:32;;;;;;;2.28;1.58;;;10.60;99.90;;;;;;5000098;28;90146;-31
2022/12/29 05:16:58;;;;;;;5.60;1.75;;;10.60;99.90;;;;;;4999825;28;89828;-32
2022/12/29 05:19:23;;;;;;;8.27;1.90;;;10.60;99.90;;;;;;4999014;28;89248;-37
2022/12/29 05:21:49;;;;;;;4.20;2.00;;;10.60;99.90;;;;;;4998892;28;88805;-33
2022/12/29 05:24:15;;;;;;;4.65;2.10;;;10.60;99.90;;;;;;4999342;28;89970;-33
2022/12/29 05:26:41;;;;;;;4.13;2.00;;;10.60;99.90;;;;;;4998062;28;89118;-32
2022/12/29 05:29:06;;;;;;;3.90;2.13;;;10.50;99.90;;;;;;5000132;28;88905;-33
2022/12/29 05:31:32;;;;;;;5.45;1.88;;;10.60;99.90;;;;;;4997945;28;90060;-33
2022/12/29 05:33:58;;;;;;;3.58;2.00;;;10.70;99.90;;;;;;4999120;28;88663;-34
2022/12/29 05:36:23;;;;;;;2.20;1.60;;;10.60;99.90;;;;;;4999042;28;89591;-36
2022/12/29 05:38:49;;;;;;;3.00;1.40;;;10.60;99.90;;;;;;4999431;28;89180;-34
2022/12/29 05:41:14;;;;;;;8.82;2.00;;;10.50;99.90;;;;;;4999315;28;90207;-32
2022/12/29 05:43:40;;;;;;;6.60;2.28;;;10.50;99.90;;;;;;5016979;27;89117;-32
2022/12/29 05:46:05;;;;;;;5.03;2.38;;;10.50;99.90;;;;;;5001396;28;90236;-33
2022/12/29 05:48:31;;;;;;;4.97;2.25;;;10.50;99.90;;;;;;5002656;28;89648;-33
2022/12/29 05:50:57;;;;;;;5.35;2.30;;;10.60;99.90;;;;;;4999815;28;90709;-35
2022/12/29 05:53:22;;;;;;;3.15;2.13;;;10.50;99.90;;;;;;5000060;28;89833;-34
2022/12/29 05:55:48;;;;;;;2.75;1.95;;;10.50;99.90;;;;;;5000596;28;90985;-35
2022/12/29 05:58:15;;;;;;;3.33;2.28;;;10.50;99.90;;;;;;5000974;28;88590;-36
2022/12/29 06:00:41;;;;;;;3.10;2.20;;;10.50;99.90;;;;;;5001370;28;90290;-33
2022/12/29 06:03:07;;;;;;;4.35;2.80;;;10.50;99.90;;;;;;5000754;28;90408;-33
2022/12/29 06:05:32;;;;;;;5.82;2.65;;;10.50;99.90;;;;;;5001085;28;89834;-34
2022/12/29 06:07:58;;;;;;;3.72;1.73;;;10.50;99.90;;;;;;4999640;28;90290;-34
2022/12/29 06:10:24;;;;;;;3.05;2.00;;;10.40;99.90;;;;;;4999932;28;90359;-35
2022/12/29 06:12:49;;;;;;;3.47;2.58;;;10.40;99.90;;;;;;5000885;28;89629;-33
2022/12/29 06:15:15;;;;;;;7.18;2.70;;;10.40;99.90;;;;;;4999132;28;89679;-32
2022/12/29 06:17:41;;;;;;;3.33;2.30;;;10.30;99.90;;;;;;5015908;28;87465;-33
2022/12/29 06:20:07;;;;;;;2.47;1.50;;;10.30;99.90;;;;;;5018820;28;90043;-34
2022/12/29 06:22:33;;;;;;;8.43;3.35;;;10.40;99.90;;;;;;5018489;28;91497;-34
2022/12/29 06:24:58;;;;;;;4.45;1.90;;;10.40;99.90;;;;;;5018266;28;89867;-35
2022/12/29 06:27:24;;;;;;;3.60;2.10;;;10.30;99.90;;;;;;5019795;28;88493;-32
2022/12/29 06:29:50;;;;;;;3.65;2.28;;;10.30;99.90;;;;;;5018902;28;91556;-33
2022/12/29 06:32:15;;;;;;;4.57;2.20;;;10.30;99.90;;;;;;5017685;28;90693;-33
2022/12/29 06:34:41;;;;;;;7.25;3.17;;;10.20;99.90;;;;;;5017986;28;90149;-31
2022/12/29 06:37:07;;;;;;;3.40;2.00;;;10.20;99.90;;;;;;5000437;28;87913;-32
2022/12/29 06:39:33;;;;;;;3.72;1.70;;;10.20;99.90;;;;;;5001348;28;90186;-36
2022/12/29 06:41:59;;;;;;;4.32;2.35;;;10.20;99.90;;;;;;5001209;28;89422;-36
2022/12/29 06:44:24;;;;;;;5.32;2.00;;;10.20;99.90;;;;;;5001575;28;88676;-35
2022/12/29 06:46:50;;;;;;;8.48;1.98;;;10.20;99.90;;;;;;5001900;28;89421;-35
2022/12/29 06:49:16;;;;;;;4.15;1.83;;;10.30;99.90;;;;;;5002538;28;89236;-34
2022/12/29 06:51:42;;;;;;;6.57;3.10;;;10.30;99.90;;;;;;5004220;28;88805;-35
2022/12/29 06:54:08;;;;;;;3.90;1.67;;;10.30;99.90;;;;;;5001806;28;89570;-34
2022/12/29 06:56:33;;;;;;;6.80;2.00;;;10.30;99.90;;;;;;5001516;28;90457;-37
2022/12/29 06:59:00;;;;;;;2.92;1.88;;;10.40;99.90;;;;;;5002020;28;89038;-35
2022/12/29 07:01:26;;;;;;;6.78;2.03;;;10.30;99.90;;;;;;5001563;28;89893;-34
2022/12/29 07:03:52;;;;;;;4.95;2.53;;;10.30;99.90;;;;;;5002072;28;89874;-35
2022/12/29 07:06:18;;;;;;;4.00;1.60;;;10.30;99.90;;;;;;5000930;28;88375;-35
2022/12/29 07:08:43;;;;;;;3.50;1.90;;;10.30;99.90;;;;;;5000147;28;90501;-35
2022/12/29 07:11:09;;;;;;;3.83;1.75;;;10.20;99.90;;;;;;5015446;27;90456;-36
2022/12/29 07:13:35;;;;;;;5.10;1.85;;;10.20;99.90;;;;;;4999413;28;89279;-35
2022/12/29 07:16:08;;;;;;;5.70;2.00;;;10.30;99.90;;;;;;5000481;28;89687;-35
2022/12/29 07:18:35;;;;;;;3.13;2.10;;;10.30;99.90;;;;;;4999997;28;89904;-34
2022/12/29 07:21:01;;;;;;;7.82;2.20;;;10.40;99.90;;;;;;5000337;28;90409;-35
2022/12/29 07:23:27;;;;;;;5.40;2.63;;;10.30;99.90;;;;;;5001064;28;89379;-34
2022/12/29 07:26:04;;;;;;;4.72;2.38;;;10.40;99.90;;;;;;5001170;28;89909;-36
2022/12/29 07:28:31;;;;;;;8.23;2.22;;;10.30;99.90;;;;;;5001499;28;90636;-35
2022/12/29 07:30:56;;;;;;;6.80;2.65;;;10.20;99.90;;;;;;4999896;28;91440;-35
2022/12/29 07:33:22;;;;;;;11.27;3.65;;;10.20;99.90;;;;;;4997314;28;90061;-35
2022/12/29 07:35:47;;;;;;;10.23;3.03;;;10.20;99.90;;;;;;4998952;28;88600;-37
2022/12/29 07:38:13;;;;;;;5.97;2.63;;;10.20;99.90;;;;;;4998931;28;89770;-37
2022/12/29 07:40:39;;;;;;;7.00;2.65;;;10.10;99.90;;;;;;4999050;28;89207;-36
2022/12/29 07:43:04;;;;;;;7.40;2.67;;;10.10;99.90;;;;;;4998234;28;89838;-36
2022/12/29 07:45:30;;;;;;;7.38;3.08;;;10.10;99.90;;;;;;4998401;28;89372;-34
2022/12/29 07:47:55;;;;;;;8.70;2.95;;;10.20;99.90;;;;;;4998271;28;92021;-34
2022/12/29 07:50:21;;;;;;;13.07;3.50;;;10.10;99.90;;;;;;4998566;28;90140;-35
2022/12/29 07:52:47;;;;;;;4.75;2.03;;;10.10;99.90;;;;;;4998709;28;89574;-37
2022/12/29 07:55:14;;;;;;;7.22;2.53;;;10.10;99.90;;;;;;4999094;28;89221;-35
2022/12/29 07:57:39;;;;;;;12.45;3.10;;;10.10;99.90;;;;;;4998527;28;89627;-35
2022/12/29 08:00:05;;;;;;;13.95;2.92;;;10.10;99.90;;;;;;4999145;28;91010;-35
2022/12/29 08:02:31;;;;;;;7.93;3.08;;;10.10;99.90;;;;;;4998322;28;89945;-35
2022/12/29 08:04:57;;;;;;;4.22;2.47;;;10.10;99.90;;;;;;4999570;28;89035;-35
2022/12/29 08:07:22;;;;;;;6.22;3.38;;;10.10;99.90;;;;;;4998455;28;89589;-36
2022/12/29 08:09:48;;;;;;;9.38;2.92;;;10.10;99.90;;;;;;4998208;28;90594;-34
2022/12/29 08:12:13;;;;;;;8.70;3.17;;;10.10;99.90;;;;;;4998078;28;90679;-33
2022/12/29 08:14:39;;;;;;;6.70;1.83;;;10.10;99.90;;;;;;4998217;28;87813;-34
2022/12/29 08:17:04;;;;;;;6.53;2.75;;;10.20;99.90;;;;;;4998705;28;90207;-34
2022/12/29 08:19:30;;;;;;;15.18;3.03;;;10.10;99.90;;;;;;4998536;28;88889;-34
2022/12/29 08:21:56;;;;;;;7.18;2.30;;;10.20;99.90;;;;;;4998485;28;89630;-35
2022/12/29 08:24:21;;;;;;;6.13;2.75;;;10.10;99.90;;;;;;4998254;28;89708;-34
2022/12/29 08:26:47;;;;;;;7.13;2.70;;;10.10;99.90;;;;;;4998805;28;90322;-36
2022/12/29 08:29:12;;;;;;;8.07;3.65;;;10.20;99.90;;;;;;4998328;28;90142;-34
2022/12/29 08:31:38;;;;;;;14.65;3.90;;;10.10;99.90;;;;;;4998279;28;88288;-37
2022/12/29 08:34:04;;;;;;;5.25;3.10;;;10.10;99.90;;;;;;4997744;28;89197;-34
2022/12/29 08:36:30;;;;;;;6.10;2.95;;;10.10;99.90;;;;;;4997344;28;90194;-35
2022/12/29 08:38:57;;;;;;;17.13;3.88;;;10.10;99.90;;;;;;4998645;28;88051;-34
2022/12/29 08:41:22;;;;;;;7.10;2.90;;;10.00;99.90;;;;;;4998185;28;89501;-35
2022/12/29 08:43:49;;;;;;;6.80;3.15;;;10.00;99.90;;;;;;4998223;28;89112;-34
2022/12/29 08:46:15;;;;;;;7.97;2.95;;;10.10;99.90;;;;;;4997951;28;90051;-33
2022/12/29 08:48:41;;;;;;;12.40;3.47;;;10.10;99.90;;;;;;4997798;28;89209;-31
2022/12/29 08:51:07;;;;;;;9.57;2.75;;;10.10;99.90;;;;;;4997850;28;88679;-32
2022/12/29 08:53:33;;;;;;;8.45;3.33;;;10.10;99.90;;;;;;4998933;28;89451;-32
2022/12/29 08:56:00;;;;;;;6.80;2.45;;;10.20;99.90;;;;;;4998636;28;90371;-33
2022/12/29 08:58:26;;;;;;;6.20;3.08;;;10.10;99.90;;;;;;4997277;28;90324;-34
2022/12/29 09:00:53;;;;;;;7.97;2.78;;;10.10;99.90;;;;;;4997028;28;91369;-32
2022/12/29 09:03:19;;;;;;;13.45;2.90;;;10.20;99.90;;;;;;4997890;28;88980;-34
2022/12/29 09:05:51;;;;;;;5.25;2.00;;;10.10;99.90;;;;;;4997782;28;89733;-35
2022/12/29 09:08:17;;;;;;;10.30;2.92;;;10.10;99.90;;;;;;4997729;28;90136;-32
2022/12/29 09:10:44;;;;;;;6.80;2.78;;;10.00;99.90;;;;;;4997718;28;89698;-32
2022/12/29 09:13:11;;;;;;;8.57;3.47;;;10.00;99.90;;;;;;5012659;28;88237;-33
2022/12/29 09:15:37;;;;;;;5.25;2.60;;;10.00;99.90;;;;;;5015646;28;89868;-33
2022/12/29 09:18:02;;;;;;;9.65;2.55;;;10.00;99.90;;;;;;5013110;28;89601;-34
2022/12/29 09:20:29;;;;;;;9.18;2.65;;;10.10;99.90;;;;;;5016058;28;89878;-35
2022/12/29 09:22:54;;;;;;;4.72;2.55;;;10.10;99.90;;;;;;5014680;28;89897;-33
2022/12/29 09:25:23;;;;;;;8.68;2.55;;;10.00;99.90;;;;;;5014601;28;90221;-32
2022/12/29 09:27:49;;;;;;;8.73;3.28;;;10.10;99.90;;;;;;5015917;28;88794;-33
2022/12/29 09:30:14;;;;;;;3.85;1.98;;;10.10;99.90;;;;;;5013917;27;88380;-33
2022/12/29 09:33:08;;;;;;;5.65;2.50;;;10.10;99.90;;;;;;5016557;28;89312;-35
2022/12/29 09:35:33;;;;;;;6.07;2.63;;;10.00;99.90;;;;;;4994977;28;90211;-32
2022/12/29 09:37:59;;;;;;;12.82;2.67;;;9.90;99.90;;;;;;4997712;28;90216;-32
2022/12/29 09:40:30;;;;;;;9.80;3.20;;;9.90;99.90;;;;;;4996465;28;90680;-32
2022/12/29 09:43:20;;;;;;;5.35;2.83;;;9.90;99.90;;;;;;4997226;28;88274;-33
2022/12/29 09:46:04;;;;;;;11.75;3.72;;;9.90;99.90;;;;;;4996771;28;90406;-34
2022/12/29 09:48:34;;;;;;;10.32;2.83;;;9.90;99.90;;;;;;4975603;28;90658;-32
2022/12/29 09:51:08;;;;;;;9.65;3.08;;;9.90;99.90;;;;;;4995220;28;90487;-32
2022/12/29 09:53:48;;;;;;;6.72;2.85;;;9.90;99.90;;;;;;4996280;28;89172;-34
2022/12/29 09:56:18;;;;;;;9.13;3.20;;;9.90;99.90;;;;;;4978656;28;90711;-34
2022/12/29 09:59:02;;;;;;;11.43;3.22;;;9.90;99.90;;;;;;4978753;28;89694;-37
2022/12/29 10:01:49;;;;;;;5.45;3.13;;;9.90;99.90;;;;;;4996475;28;89500;-35
2022/12/29 10:04:14;;;;;;;9.88;2.80;;;9.80;99.90;;;;;;4995519;28;89147;-35
2022/12/29 10:07:03;;;;;;;6.82;3.55;;;9.80;99.90;;;;;;4996491;28;90473;-35
2022/12/29 10:09:34;;;;;;;;;;;9.80;99.90;;;;;;4997891;28;89255;-36
2022/12/29 10:12:17;;;;;;;7.50;3.05;;;9.70;99.90;;;;;;4999753;28;90732;-37
2022/12/29 10:15:04;;;;;;;10.45;3.40;;;9.80;99.90;;;;;;5000239;28;89218;-35
2022/12/29 10:17:44;;;;;;;6.78;2.97;;;9.80;99.90;;;;;;4999454;28;90491;-35
2022/12/29 10:20:38;;;;;;;8.15;2.65;;;9.70;99.90;;;;;;5000037;28;89955;-37
2022/12/29 10:23:26;;;;;;;3.38;2.47;;;9.70;99.90;;;;;;5000404;28;90056;-32
2022/12/29 10:25:58;;;;;;;7.90;3.15;;;9.80;99.90;;;;;;4999778;28;89504;-34
2022/12/29 10:28:31;;;;;;;10.93;3.08;;;9.80;99.90;;;;;;4999797;28;90322;-35
2022/12/29 10:31:00;;;;;;;8.93;3.13;;;9.90;99.90;;;;;;5000397;28;89505;-34
2022/12/29 10:33:37;;;;;;;7.65;3.28;;;9.90;99.90;;;;;;4994518;28;90061;-35
2022/12/29 10:36:13;;;;;;;6.82;3.22;;;10.00;99.90;;;;;;4979698;28;88920;-34
2022/12/29 10:38:49;;;;;;;10.70;3.10;;;10.00;99.90;;;;;;4979063;28;89154;-35
2022/12/29 10:41:37;;;;;;;5.00;2.20;;;10.10;99.90;;;;;;4979913;28;90232;-35
2022/12/29 10:44:03;;;;;;;10.85;3.35;;;10.10;99.90;;;;;;4962316;28;90058;-32
2022/12/29 10:46:34;;;;;;;6.90;2.45;;;10.20;99.90;;;;;;4979628;28;89770;-33
2022/12/29 10:48:59;;;;;;;11.02;3.63;;;10.20;99.90;;;;;;4979390;28;90175;-35
2022/12/29 10:51:30;;;;;;;7.05;3.13;;;10.20;99.90;;;;;;4979665;28;89436;-32
2022/12/29 10:54:02;;;;;;;5.95;2.55;;;10.10;99.90;;;;;;4979377;28;90062;-35
2022/12/29 10:56:44;;;;;;;11.88;3.53;;;10.10;99.90;;;;;;4979755;28;88718;-33
2022/12/29 10:59:22;;;;;;;4.50;2.65;;;10.00;99.90;;;;;;4980925;28;89774;-32
2022/12/29 11:01:57;;;;;;;8.23;2.78;;;10.00;99.90;;;;;;4979517;28;90016;-33
2022/12/29 11:04:35;;;;;;;9.20;3.08;;;9.90;99.90;;;;;;4978882;28;89402;-34
2022/12/29 11:07:01;;;;;;;7.43;2.95;;;9.80;99.90;;;;;;4979320;28;90047;-35
2022/12/29 11:09:29;;;;;;;5.18;2.35;;;9.80;99.90;;;;;;4979523;28;90228;-34
2022/12/29 11:11:55;;;;;;;13.15;3.58;;;9.70;99.90;;;;;;4979389;28;89719;-35
2022/12/29 11:14:29;;;;;;;12.00;2.92;;;9.70;99.90;;;;;;4979331;28;88601;-32
2022/12/29 11:16:59;;;;;;;9.10;2.88;;;9.70;99.90;;;;;;4979549;28;88786;-31
2022/12/29 11:19:28;;;;;;;5.05;2.58;;;9.60;99.90;;;;;;4979536;28;90323;-33
2022/12/29 11:21:53;;;;;;;;;;;9.70;99.90;;;;;;4990884;28;90342;-33
2022/12/29 11:24:22;;;;;;;10.00;3.10;;;9.70;99.90;;;;;;4981393;28;89178;-34
2022/12/29 11:26:57;;;;;;;7.75;2.90;;;9.70;99.90;;;;;;4993136;28;88193;-32
2022/12/29 11:29:37;;;;;;;8.45;2.65;;;9.70;99.90;;;;;;4991661;28;90080;-33
2022/12/29 11:32:21;;;;;;;7.15;2.92;;;9.70;99.90;;;;;;4980087;28;90728;-33
2022/12/29 11:34:47;;;;;;;2.55;2.08;;;9.70;99.90;;;;;;4994375;28;90110;-35
2022/12/29 11:37:40;;;;;;;7.60;2.83;;;9.70;99.90;;;;;;4999942;28;90282;-32
2022/12/29 11:40:20;;;;;;;3.97;2.13;;;9.80;99.90;;;;;;5005752;28;90353;-32
2022/12/29 11:42:56;;;;;;;8.82;2.85;;;9.70;99.90;;;;;;5010713;28;89568;-33
2022/12/29 11:45:29;;;;;;;5.50;2.47;;;9.70;99.90;;;;;;5010974;28;89443;-32
2022/12/29 11:48:01;;;;;;;6.20;2.90;;;9.70;99.90;;;;;;5011674;28;88272;-31
2022/12/29 11:50:31;;;;;;;3.22;2.85;;;9.60;99.90;;;;;;5011714;28;90369;-31
2022/12/29 11:53:21;;;;;;;5.88;2.90;;;9.60;99.90;;;;;;5010141;28;90020;-32
2022/12/29 11:55:51;;;;;;;6.13;3.25;;;9.70;99.90;;;;;;5005809;28;88027;-32
2022/12/29 11:58:17;;;;;;;6.78;2.92;;;9.60;99.90;;;;;;4997812;28;89971;-34
2022/12/29 12:00:45;;;;;;;12.45;4.35;;;9.70;99.90;;;;;;4998912;28;90087;-34
2022/12/29 12:03:18;;;;;;;12.85;3.25;;;9.70;99.90;;;;;;4998558;28;89292;-34
2022/12/29 12:05:55;;;;;;;5.72;3.72;;;9.70;99.90;;;;;;4998077;28;90437;-32
2022/12/29 12:08:44;;;;;;;15.50;3.72;;;9.70;99.90;;;;;;5006088;28;89002;-33
2022/12/29 12:11:27;;;;;;;8.25;3.47;;;9.70;99.90;;;;;;5008702;28;89955;-35
2022/12/29 12:14:19;;;;;;;15.30;4.97;;;9.80;99.90;;;;;;4997743;28;89949;-32
2022/12/29 12:16:51;;;;;;;9.82;3.20;;;9.70;99.90;;;;;;4997641;28;90126;-34
2022/12/29 12:19:46;;;;;;;7.97;3.63;;;9.70;99.90;;;;;;4998729;28;88888;-33
2022/12/29 12:22:36;;;;;;;8.18;4.47;;;9.70;99.90;;;;;;4998246;28;90188;-34
2022/12/29 12:25:21;;;;;;;9.63;3.30;;;9.60;99.90;;;;;;4998192;28;90617;-34
2022/12/29 12:27:56;;;;;;;11.50;3.65;;;9.60;99.90;;;;;;4997199;28;90569;-34
2022/12/29 12:30:24;;;;;;;12.20;4.32;;;9.50;99.90;;;;;;4998387;28;89222;-32
2022/12/29 12:33:02;;;;;;;9.98;3.83;;;9.60;99.90;;;;;;4998040;28;89840;-35
2022/12/29 12:36:14;;;;;;;11.93;3.58;;;9.60;99.90;;;;;;4977767;28;90761;-33
2022/12/29 12:38:54;;;;;;;9.70;3.45;;;9.60;99.90;;;;;;4957406;28;89540;-32
2022/12/29 12:41:48;;;;;;;6.72;3.65;;;9.60;99.90;;;;;;4978270;28;89399;-32
2022/12/29 12:44:32;;;;;;;11.15;4.22;;;9.60;99.90;;;;;;4969772;28;89873;-35
2022/12/29 12:47:21;;;;;;;11.13;3.88;;;9.60;99.90;;;;;;4979068;28;89607;-33
2022/12/29 12:50:11;;;;;;;9.18;4.22;;;9.60;99.90;;;;;;4977830;28;89639;-34
2022/12/29 12:52:39;;;;;;;5.28;3.42;;;9.60;99.90;;;;;;4965195;28;90074;-32
2022/12/29 12:55:14;;;;;;;;;;;9.60;99.90;;;;;;4978570;28;90159;-34
2022/12/29 12:58:00;;;;;;;15.50;4.55;;;9.60;99.90;;;;;;4979072;28;88909;-35
2022/12/29 13:00:32;;;;;;;12.57;3.63;;;9.70;99.90;;;;;;4977916;28;89678;-32
2022/12/29 13:03:12;;;;;;;12.40;3.75;;;9.70;99.90;;;;;;4977831;28;89162;-33
2022/12/29 13:06:22;;;;;;;7.82;2.85;;;9.70;99.90;;;;;;4976455;28;89834;-32
2022/12/29 13:09:19;;;;;;;9.10;3.40;;;9.60;99.90;;;;;;4977711;28;91202;-33
2022/12/29 13:11:56;;;;;;;10.45;3.03;;;9.60;99.90;;;;;;4978180;28;89178;-32
2022/12/29 13:14:48;;;;;;;9.00;3.97;;;9.60;99.90;;;;;;4977116;28;89342;-32
2022/12/29 13:17:36;;;;;;;8.27;3.85;;;9.60;99.90;;;;;;4977883;28;89705;-32
2022/12/29 13:20:16;;;;;;;;;;;9.50;99.90;;;;;;4967179;28;90529;-34
2022/12/29 13:23:14;;;;;;;8.02;2.95;;;9.60;99.90;;;;;;4979130;28;90666;-34
2022/12/29 13:25:59;;;;;;;14.63;3.47;;;9.60;99.90;;;;;;4941325;28;89070;-35
2022/12/29 13:28:31;;;;;;;12.23;3.55;;;9.60;99.90;;;;;;4964130;28;90205;-32
2022/12/29 13:31:03;;;;;;;12.80;4.60;;;9.60;99.90;;;;;;4977901;28;90348;-32
2022/12/29 13:33:58;;;;;;;8.68;3.58;;;9.50;99.90;;;;;;4976776;28;88927;-32
2022/12/29 13:36:29;;;;;;;14.23;4.03;;;9.50;99.90;;;;;;4977230;28;89032;-35
2022/12/29 13:39:19;;;;;;;10.20;3.95;;;9.50;99.90;;;;;;4977523;28;90369;-36
2022/12/29 13:41:55;;;;;;;12.93;3.92;;;9.50;99.90;;;;;;4976307;28;89920;-33
2022/12/29 13:44:22;;;;;;;15.18;3.63;;;9.40;99.90;;;;;;4977577;28;89409;-31
2022/12/29 13:46:49;;;;;;;15.37;4.27;;;9.40;99.90;;;;;;4975111;28;90699;-34
2022/12/29 13:49:19;;;;;;;12.55;3.03;;;9.40;99.90;;;;;;4976528;28;90203;-34